Time;durP1;ratioP1;P1;durP2;ratioP2;P2;SDS_P1;SDS_P2;PMS_P1;PMS_P2;Temp;Humidity;BMP_temperature;BMP_pressure;BME280_temperature;BME280_humidity;BME280_pressure;Samples;Min_cycle;Max_cycle;Signal;HPM_P1;HPM_P2
2023/01/16 00:00:09;;;;;;;3.37;1.00;;;30.40;99.90;;;;;;4975833;28;20183;-72
2023/01/16 00:02:37;;;;;;;3.23;0.80;;;30.20;99.90;;;;;;4975952;28;20664;-70
2023/01/16 00:05:05;;;;;;;3.60;1.03;;;31.00;99.90;;;;;;4975748;28;20191;-72
2023/01/16 00:07:32;;;;;;;1.90;0.60;;;32.00;99.90;;;;;;4975554;28;20223;-71
2023/01/16 00:09:59;;;;;;;3.63;0.50;;;32.10;99.90;;;;;;4976078;28;20245;-73
2023/01/16 00:12:27;;;;;;;4.57;0.82;;;31.40;99.90;;;;;;4975813;28;20184;-72
2023/01/16 00:14:54;;;;;;;2.90;0.70;;;31.40;99.90;;;;;;4976402;28;20205;-74
2023/01/16 00:17:21;;;;;;;4.20;1.03;;;32.20;99.90;;;;;;4976129;28;20237;-72
2023/01/16 00:19:49;;;;;;;2.90;0.60;;;31.90;99.90;;;;;;4975985;28;20280;-71
2023/01/16 00:22:16;;;;;;;2.47;0.57;;;31.90;99.90;;;;;;4975823;28;20187;-71
2023/01/16 00:24:44;;;;;;;2.53;0.60;;;32.30;99.90;;;;;;4976058;28;20618;-70
2023/01/16 00:27:11;;;;;;;5.23;0.77;;;32.50;99.90;;;;;;4974638;28;20215;-73
2023/01/16 00:29:39;;;;;;;3.57;0.80;;;32.70;99.90;;;;;;4976035;28;20266;-70
2023/01/16 00:32:06;;;;;;;3.60;0.90;;;33.20;99.90;;;;;;4975788;28;20696;-70
2023/01/16 00:34:33;;;;;;;6.43;0.70;;;33.60;99.90;;;;;;4975781;28;20672;-73
2023/01/16 00:37:01;;;;;;;9.88;1.00;;;32.20;99.90;;;;;;4975612;28;20189;-69
2023/01/16 00:39:28;;;;;;;3.78;0.60;;;31.50;99.90;;;;;;4975802;28;20213;-69
2023/01/16 00:41:55;;;;;;;5.17;0.90;;;31.50;99.90;;;;;;4976033;28;20183;-69
2023/01/16 00:44:23;;;;;;;3.13;0.83;;;32.30;99.90;;;;;;4975580;28;20194;-70
2023/01/16 00:46:50;;;;;;;3.72;0.60;;;33.50;99.90;;;;;;4975247;28;20215;-68
2023/01/16 00:49:18;;;;;;;3.97;0.98;;;34.00;99.90;;;;;;4975074;28;20298;-68
2023/01/16 00:51:45;;;;;;;1.77;0.63;;;33.90;99.90;;;;;;4975748;28;20258;-69
2023/01/16 00:54:12;;;;;;;3.90;0.85;;;33.80;99.90;;;;;;4957801;28;20615;-69
2023/01/16 00:56:40;;;;;;;3.17;0.50;;;34.10;99.90;;;;;;4975200;28;20190;-69
2023/01/16 00:59:08;;;;;;;3.90;0.88;;;33.00;99.90;;;;;;4975624;28;20373;-69
2023/01/16 01:01:35;;;;;;;6.38;1.00;;;32.00;99.90;;;;;;4976896;28;20191;-69
2023/01/16 01:04:03;;;;;;;2.03;0.60;;;30.80;99.90;;;;;;4974661;28;20569;-69
2023/01/16 01:06:30;;;;;;;3.28;0.70;;;30.60;99.90;;;;;;4974789;28;20214;-70
2023/01/16 01:08:59;;;;;;;2.75;0.70;;;31.70;99.90;;;;;;4975265;28;20641;-68
2023/01/16 01:11:26;;;;;;;2.75;0.68;;;32.60;99.90;;;;;;4957738;28;20265;-75
2023/01/16 01:13:54;;;;;;;1.80;0.68;;;33.50;99.90;;;;;;4975129;28;20171;-72
2023/01/16 01:16:21;;;;;;;5.07;0.90;;;33.40;99.90;;;;;;4974798;28;20258;-68
2023/01/16 01:18:49;;;;;;;1.88;0.85;;;33.90;99.90;;;;;;4975262;28;20183;-73
2023/01/16 01:21:17;;;;;;;4.45;0.65;;;33.10;99.90;;;;;;4975131;28;20202;-68
2023/01/16 01:23:45;;;;;;;3.67;0.52;;;32.90;99.90;;;;;;4974802;28;20237;-74
2023/01/16 01:26:16;;;;;;;3.10;0.82;;;32.50;99.90;;;;;;4974768;28;20187;-70
2023/01/16 01:28:44;;;;;;;3.50;0.65;;;31.70;99.90;;;;;;4974537;28;20204;-68
2023/01/16 01:31:13;;;;;;;3.03;0.70;;;31.10;99.90;;;;;;4975100;28;20195;-68
2023/01/16 01:33:41;;;;;;;3.72;0.68;;;31.50;99.90;;;;;;4975004;28;20262;-69
2023/01/16 01:36:09;;;;;;;2.40;0.77;;;31.90;99.90;;;;;;4973888;28;20229;-69
2023/01/16 01:38:37;;;;;;;1.63;0.60;;;32.10;99.90;;;;;;4957376;28;20195;-68
2023/01/16 01:41:05;;;;;;;1.60;0.52;;;32.50;99.90;;;;;;4974616;28;20589;-74
2023/01/16 01:43:48;;;;;;;9.20;0.90;;;32.00;99.90;;;;;;4974492;28;20629;-68
2023/01/16 01:46:23;;;;;;;3.40;0.65;;;31.10;99.90;;;;;;4974168;28;20282;-68
2023/01/16 01:48:56;;;;;;;5.83;1.60;;;30.80;99.90;;;;;;4974864;28;20652;-68
2023/01/16 01:51:33;;;;;;;5.03;0.83;;;30.30;99.90;;;;;;4974308;28;20187;-68
2023/01/16 01:54:24;;;;;;;5.50;1.23;;;29.80;99.90;;;;;;4974571;28;20190;-68
2023/01/16 01:56:59;;;;;;;3.30;0.80;;;30.10;99.90;;;;;;4960562;28;20262;-68
2023/01/16 01:59:37;;;;;;;5.97;1.07;;;30.20;99.90;;;;;;4973974;28;20179;-72
2023/01/16 02:02:07;;;;;;;2.90;1.00;;;29.90;99.90;;;;;;4974673;28;20265;-68
2023/01/16 02:04:38;;;;;;;3.80;0.90;;;29.90;99.90;;;;;;4974434;28;20176;-68
2023/01/16 02:07:08;;;;;;;7.13;1.30;;;29.50;99.90;;;;;;4973997;28;20310;-69
2023/01/16 02:09:37;;;;;;;5.37;1.20;;;29.20;99.90;;;;;;4974312;28;20266;-69
2023/01/16 02:12:07;;;;;;;1.80;0.80;;;28.90;99.90;;;;;;4956845;28;20581;-68
2023/01/16 02:14:37;;;;;;;6.70;0.90;;;28.80;99.90;;;;;;4973879;28;20738;-68
2023/01/16 02:20:20;;;;;;;3.30;0.70;;;29.10;99.90;;;;;;4974397;28;20187;-69
2023/01/16 02:22:59;;;;;;;3.30;0.83;;;29.80;99.90;;;;;;4973921;28;20577;-70
2023/01/16 02:25:58;;;;;;;1.83;0.60;;;30.30;99.90;;;;;;4970038;28;20657;-70
2023/01/16 02:28:35;;;;;;;3.53;0.77;;;30.20;99.90;;;;;;4942989;29;20243;-73
2023/01/16 02:31:17;;;;;;;3.83;1.10;;;29.70;99.90;;;;;;4981709;28;20286;-68
2023/01/16 02:34:21;;;;;;;3.13;0.83;;;29.60;99.90;;;;;;4958725;28;20541;-69
2023/01/16 02:37:25;;;;;;;4.50;0.83;;;30.20;99.90;;;;;;4936395;29;20585;-68
2023/01/16 02:40:23;;;;;;;3.70;0.97;;;30.90;99.90;;;;;;4981942;28;20180;-70
2023/01/16 02:43:31;;;;;;;1.47;0.47;;;30.70;99.90;;;;;;4991490;28;20182;-70
2023/01/16 02:46:09;;;;;;;3.40;0.60;;;30.10;99.90;;;;;;4990568;28;20273;-71
2023/01/16 02:49:11;;;;;;;3.73;0.90;;;29.90;99.90;;;;;;4991974;28;20707;-68
2023/01/16 02:51:54;;;;;;;4.93;0.70;;;29.40;99.90;;;;;;4991422;28;20248;-75
2023/01/16 02:54:32;;;;;;;2.10;0.60;;;29.20;99.90;;;;;;4992060;28;20175;-72
2023/01/16 02:57:12;;;;;;;5.77;1.07;;;29.10;99.90;;;;;;4992123;28;20174;-69
2023/01/16 02:59:42;;;;;;;5.77;1.00;;;29.20;99.90;;;;;;4991650;28;20549;-70
2023/01/16 03:02:09;;;;;;;3.13;0.80;;;29.80;99.90;;;;;;4992134;28;20545;-68
2023/01/16 03:04:44;;;;;;;2.10;0.67;;;30.30;99.90;;;;;;4988839;28;20184;-67
2023/01/16 03:07:36;;;;;;;4.00;0.67;;;30.10;99.90;;;;;;4972203;28;20232;-72
2023/01/16 03:10:30;;;;;;;4.33;0.77;;;29.80;99.90;;;;;;4974870;28;20187;-68
2023/01/16 03:13:15;;;;;;;3.30;0.73;;;29.70;99.90;;;;;;4962622;28;20604;-70
2023/01/16 03:16:01;;;;;;;2.47;0.67;;;29.70;99.90;;;;;;4976039;28;20227;-72
2023/01/16 03:18:40;;;;;;;5.17;0.90;;;29.30;99.90;;;;;;4976144;28;20207;-72
2023/01/16 03:21:17;;;;;;;6.07;1.00;;;29.20;99.90;;;;;;4976293;28;20202;-70
2023/01/16 03:24:31;;;;;;;3.37;0.70;;;29.30;99.90;;;;;;4956766;28;20707;-69
2023/01/16 03:27:07;;;;;;;5.40;0.77;;;29.40;99.90;;;;;;4956679;28;20281;-69
2023/01/16 03:30:08;;;;;;;3.03;0.90;;;29.40;99.90;;;;;;4995054;28;20596;-71
2023/01/16 03:32:53;;;;;;;1.57;0.50;;;29.20;99.90;;;;;;4995700;28;20538;-73
2023/01/16 03:35:30;;;;;;;1.87;0.70;;;29.00;99.90;;;;;;4995484;28;20185;-75
2023/01/16 03:38:04;;;;;;;4.83;0.83;;;29.30;99.90;;;;;;4995053;28;20166;-73
2023/01/16 03:40:36;;;;;;;2.20;0.60;;;29.20;99.90;;;;;;4995260;28;20206;-75
2023/01/16 03:43:26;;;;;;;4.77;1.17;;;29.30;99.90;;;;;;4995396;28;20182;-72
2023/01/16 03:45:59;;;;;;;3.93;0.60;;;29.30;99.90;;;;;;4994848;28;20171;-71
2023/01/16 03:48:48;;;;;;;3.37;0.63;;;29.30;99.90;;;;;;4995012;28;20214;-74
2023/01/16 03:51:34;;;;;;;2.83;0.53;;;29.50;99.90;;;;;;4995137;28;20179;-73
2023/01/16 03:54:28;;;;;;;1.60;0.50;;;29.20;99.90;;;;;;4995037;28;20171;-71
2023/01/16 03:57:30;;;;;;;3.40;0.80;;;29.30;99.90;;;;;;4991567;28;20258;-69
2023/01/16 03:59:59;;;;;;;2.43;0.60;;;29.20;99.90;;;;;;4950557;28;20202;-69
2023/01/16 04:02:51;;;;;;;3.27;0.90;;;29.90;99.90;;;;;;4975388;28;20178;-69
2023/01/16 04:08:44;;;;;;;2.67;0.80;;;31.80;99.90;;;;;;4973762;28;20214;-67
2023/01/16 04:11:14;;;;;;;2.88;0.50;;;32.00;99.90;;;;;;4975256;28;20188;-67
2023/01/16 04:13:45;;;;;;;4.70;0.75;;;32.20;99.90;;;;;;4974782;28;20198;-68
2023/01/16 04:16:17;;;;;;;3.30;0.60;;;32.50;99.90;;;;;;4974394;28;20234;-70
2023/01/16 04:18:50;;;;;;;2.70;0.50;;;32.30;99.90;;;;;;4987225;28;20274;-67
2023/01/16 04:21:18;;;;;;;4.95;0.75;;;32.20;99.90;;;;;;4974114;28;20184;-68
2023/01/16 04:23:45;;;;;;;3.10;0.63;;;32.00;99.90;;;;;;4975070;28;20187;-68
2023/01/16 04:26:13;;;;;;;4.30;0.80;;;32.10;99.90;;;;;;4974880;28;20175;-69
2023/01/16 04:28:40;;;;;;;3.50;0.50;;;32.10;99.90;;;;;;4974062;28;20222;-68
2023/01/16 04:31:07;;;;;;;4.85;0.85;;;32.50;99.90;;;;;;4974876;28;20172;-68
2023/01/16 04:33:35;;;;;;;2.80;0.68;;;32.80;99.90;;;;;;4974694;28;20180;-68
2023/01/16 04:36:02;;;;;;;5.45;0.70;;;32.90;99.90;;;;;;4974431;28;20254;-68
2023/01/16 04:38:30;;;;;;;7.57;0.77;;;32.10;99.90;;;;;;4974528;28;20211;-68
2023/01/16 04:40:57;;;;;;;2.47;0.73;;;31.30;99.90;;;;;;4974269;28;20558;-69
2023/01/16 04:43:24;;;;;;;2.78;0.60;;;30.90;99.90;;;;;;4974079;28;20571;-68
2023/01/16 04:45:52;;;;;;;3.27;1.00;;;31.10;99.90;;;;;;4974471;28;20183;-68
2023/01/16 04:48:19;;;;;;;5.47;1.00;;;31.00;99.90;;;;;;4974027;28;20223;-69
2023/01/16 04:50:49;;;;;;;5.13;0.73;;;31.40;99.90;;;;;;4974245;28;20183;-68
2023/01/16 04:53:17;;;;;;;1.83;0.57;;;31.90;99.90;;;;;;4974397;28;20187;-69
2023/01/16 04:55:44;;;;;;;2.83;0.90;;;32.60;99.90;;;;;;4974284;28;20629;-69
2023/01/16 04:58:12;;;;;;;3.50;0.77;;;32.30;99.90;;;;;;4973784;28;20549;-69
2023/01/16 05:00:39;;;;;;;3.58;0.80;;;31.80;99.90;;;;;;4974315;28;20210;-69
2023/01/16 05:03:06;;;;;;;2.57;0.80;;;31.40;99.90;;;;;;4973916;28;20226;-69
2023/01/16 05:05:34;;;;;;;4.35;0.70;;;31.50;99.90;;;;;;4973761;28;20641;-69
2023/01/16 05:08:16;;;;;;;3.90;1.00;;;31.50;99.90;;;;;;4973713;28;20223;-68
2023/01/16 05:10:44;;;;;;;4.27;1.27;;;31.60;99.90;;;;;;4954812;29;20196;-68
2023/01/16 05:13:11;;;;;;;3.65;1.05;;;31.40;99.90;;;;;;4969297;28;20195;-68
2023/01/16 05:15:39;;;;;;;4.37;0.77;;;31.50;99.90;;;;;;4973922;28;20381;-69
2023/01/16 05:18:07;;;;;;;2.67;0.73;;;31.40;99.90;;;;;;4973720;28;20628;-68
2023/01/16 05:20:35;;;;;;;3.80;0.97;;;31.10;99.90;;;;;;4973789;28;20187;-73
2023/01/16 05:23:03;;;;;;;3.90;0.60;;;30.20;99.90;;;;;;4973764;28;20210;-69
2023/01/16 05:25:30;;;;;;;3.90;0.67;;;29.60;99.90;;;;;;4971732;28;20171;-68
2023/01/16 05:27:58;;;;;;;2.47;0.80;;;29.20;99.90;;;;;;4972536;28;20223;-70
2023/01/16 05:30:25;;;;;;;3.23;0.97;;;29.00;99.90;;;;;;4973290;28;20190;-71
2023/01/16 05:32:52;;;;;;;3.27;0.67;;;29.20;99.90;;;;;;4980209;28;20191;-68
2023/01/16 05:35:20;;;;;;;1.83;0.70;;;29.70;99.90;;;;;;4973189;28;20188;-68
2023/01/16 05:37:47;;;;;;;4.73;0.90;;;29.80;99.90;;;;;;4973212;28;20202;-69
2023/01/16 05:40:15;;;;;;;5.10;0.80;;;30.00;99.90;;;;;;4973516;28;20183;-70
2023/01/16 05:42:47;;;;;;;2.90;1.07;;;30.20;99.90;;;;;;4973068;28;20187;-68
2023/01/16 05:45:15;;;;;;;5.43;0.70;;;30.30;99.90;;;;;;4973744;28;20191;-69
2023/01/16 05:47:44;;;;;;;2.60;0.80;;;30.40;99.90;;;;;;4972243;28;20347;-70
2023/01/16 05:50:11;;;;;;;2.97;0.70;;;30.30;99.90;;;;;;4983979;28;20654;-69
2023/01/16 05:52:39;;;;;;;5.03;0.80;;;30.40;99.90;;;;;;4975550;28;20187;-69
2023/01/16 05:55:07;;;;;;;4.00;0.83;;;30.70;99.90;;;;;;4973474;28;20183;-71
2023/01/16 05:57:34;;;;;;;1.90;0.60;;;30.80;99.90;;;;;;4973050;28;20184;-69
2023/01/16 06:00:02;;;;;;;3.97;0.57;;;30.90;99.90;;;;;;4972751;28;20198;-68
2023/01/16 06:02:29;;;;;;;3.57;0.93;;;30.70;99.90;;;;;;4972780;28;20596;-69
2023/01/16 06:04:56;;;;;;;3.27;0.57;;;30.70;99.90;;;;;;4972051;28;20580;-69
2023/01/16 06:07:24;;;;;;;4.67;1.00;;;30.50;99.90;;;;;;4973108;28;20227;-72
2023/01/16 06:09:51;;;;;;;2.90;0.90;;;30.60;99.90;;;;;;4972675;28;20573;-68
2023/01/16 06:12:20;;;;;;;2.10;0.70;;;30.50;99.90;;;;;;4954937;28;20557;-69
2023/01/16 06:14:47;;;;;;;2.40;0.60;;;30.30;99.90;;;;;;4972928;28;20195;-68
2023/01/16 06:17:16;;;;;;;4.67;0.97;;;30.40;99.90;;;;;;4972823;28;20219;-69
2023/01/16 06:19:44;;;;;;;2.90;0.70;;;30.60;99.90;;;;;;4972410;28;20183;-69
2023/01/16 06:22:12;;;;;;;2.13;0.60;;;31.00;99.90;;;;;;4972357;28;20206;-68
2023/01/16 06:24:40;;;;;;;3.42;0.70;;;31.10;99.90;;;;;;4972764;28;20270;-72
2023/01/16 06:27:07;;;;;;;4.40;0.70;;;31.20;99.90;;;;;;4972401;28;20226;-69
2023/01/16 06:29:34;;;;;;;3.93;0.80;;;31.10;99.90;;;;;;4972728;28;20325;-71
2023/01/16 06:32:02;;;;;;;3.40;0.90;;;30.90;99.90;;;;;;4972819;28;20262;-69
2023/01/16 06:34:29;;;;;;;3.50;0.90;;;30.80;99.90;;;;;;4972527;28;20183;-69
2023/01/16 06:36:57;;;;;;;3.53;0.97;;;30.40;99.90;;;;;;4972765;28;20310;-70
2023/01/16 06:39:24;;;;;;;2.93;0.93;;;30.10;99.90;;;;;;4972897;28;20171;-69
2023/01/16 06:41:51;;;;;;;4.50;0.80;;;30.20;99.90;;;;;;4972260;28;20286;-69
2023/01/16 06:44:19;;;;;;;6.87;1.10;;;30.20;99.90;;;;;;4974142;28;20179;-69
2023/01/16 06:46:46;;;;;;;4.20;0.87;;;29.70;99.90;;;;;;4976396;28;20254;-69
2023/01/16 06:49:13;;;;;;;5.83;1.00;;;29.20;99.90;;;;;;4976091;28;20183;-69
2023/01/16 06:51:42;;;;;;;8.67;1.17;;;29.20;99.90;;;;;;4976044;28;20663;-69
2023/01/16 06:54:10;;;;;;;5.77;0.97;;;29.20;99.90;;;;;;4975894;28;20186;-70
2023/01/16 06:56:38;;;;;;;5.03;1.20;;;29.40;99.90;;;;;;4975877;28;20187;-68
2023/01/16 06:59:05;;;;;;;5.70;0.93;;;29.50;99.90;;;;;;4976408;28;20600;-68
2023/01/16 07:01:33;;;;;;;3.73;0.80;;;29.40;99.90;;;;;;4976447;28;20205;-72
2023/01/16 07:04:00;;;;;;;3.93;0.80;;;29.40;99.90;;;;;;4975922;28;20282;-69
2023/01/16 07:06:27;;;;;;;4.03;0.90;;;29.20;99.90;;;;;;4976206;28;20612;-69
2023/01/16 07:08:55;;;;;;;2.47;0.73;;;29.10;99.90;;;;;;4976312;28;20751;-70
2023/01/16 07:11:22;;;;;;;3.00;0.90;;;29.00;99.90;;;;;;4976046;28;20222;-69
2023/01/16 07:22:34;;;;;;;6.10;1.10;;;28.90;99.90;;;;;;4958174;28;20287;-70
2023/01/16 07:24:59;;;;;;;2.53;0.80;;;28.40;99.90;;;;;;4976389;28;20182;-68
2023/01/16 07:27:26;;;;;;;5.90;1.00;;;28.70;99.90;;;;;;4975034;28;20286;-69
2023/01/16 07:29:54;;;;;;;4.33;0.90;;;28.70;99.90;;;;;;4975857;28;20182;-68
2023/01/16 07:32:22;;;;;;;2.73;0.90;;;28.40;99.90;;;;;;4975510;28;20183;-68
2023/01/16 07:34:49;;;;;;;3.83;0.93;;;28.20;99.90;;;;;;4956126;29;20272;-71
2023/01/16 07:37:16;;;;;;;8.10;1.20;;;28.00;99.90;;;;;;4956419;29;20183;-69
2023/01/16 07:39:44;;;;;;;4.80;0.90;;;27.90;99.90;;;;;;4956440;29;20214;-67
2023/01/16 07:42:11;;;;;;;4.50;0.87;;;27.80;99.90;;;;;;4956607;28;20180;-68
2023/01/16 07:44:38;;;;;;;4.03;1.20;;;27.80;99.90;;;;;;4975519;28;20668;-69
2023/01/16 07:47:06;;;;;;;4.43;0.90;;;27.80;99.90;;;;;;4975408;28;20696;-72
2023/01/16 07:49:33;;;;;;;5.03;1.10;;;27.60;99.90;;;;;;4980782;28;20178;-69
2023/01/16 07:52:01;;;;;;;7.37;1.10;;;27.40;99.90;;;;;;4981300;28;20195;-68
2023/01/16 07:54:28;;;;;;;4.07;1.27;;;27.30;99.90;;;;;;4983404;28;20624;-75
2023/01/16 07:56:55;;;;;;;6.73;0.97;;;27.40;99.90;;;;;;4974062;28;20199;-68
2023/01/16 07:59:23;;;;;;;2.63;0.90;;;27.30;99.90;;;;;;4975173;28;20616;-69
2023/01/16 08:01:50;;;;;;;4.50;1.10;;;27.50;99.90;;;;;;4975121;28;20178;-71
2023/01/16 08:04:18;;;;;;;6.27;1.00;;;27.60;99.90;;;;;;4974717;28;20187;-70
2023/01/16 08:06:45;;;;;;;2.23;0.70;;;27.60;99.90;;;;;;4975133;28;20230;-68
2023/01/16 08:09:13;;;;;;;3.67;1.07;;;27.40;99.90;;;;;;4975084;28;20215;-69
2023/01/16 08:11:46;;;;;;;5.63;0.90;;;27.30;99.90;;;;;;4980079;28;20197;-68
2023/01/16 08:14:14;;;;;;;3.13;0.60;;;27.30;99.90;;;;;;4980300;28;20198;-69
2023/01/16 08:16:42;;;;;;;2.80;1.03;;;27.10;99.90;;;;;;4975079;28;20715;-70
2023/01/16 08:19:09;;;;;;;3.47;0.80;;;27.00;99.90;;;;;;4974533;28;20645;-69
2023/01/16 08:21:36;;;;;;;3.57;1.10;;;27.00;99.90;;;;;;4975167;28;20262;-68
2023/01/16 08:24:04;;;;;;;3.73;1.23;;;27.10;99.90;;;;;;4974580;28;20242;-71
2023/01/16 08:26:32;;;;;;;5.27;1.40;;;27.00;99.90;;;;;;4973641;28;20226;-68
2023/01/16 08:29:02;;;;;;;4.27;1.20;;;26.90;99.90;;;;;;4974384;28;20290;-69
2023/01/16 08:31:29;;;;;;;3.87;0.90;;;26.60;99.90;;;;;;4975060;28;20253;-69
2023/01/16 08:33:57;;;;;;;7.07;1.27;;;26.30;99.90;;;;;;4973818;28;20191;-71
2023/01/16 08:36:25;;;;;;;4.83;0.93;;;26.10;99.90;;;;;;4974608;28;20183;-70
2023/01/16 08:38:53;;;;;;;2.83;0.87;;;25.90;99.90;;;;;;4974570;28;20215;-69
2023/01/16 08:52:36;;;;;;;3.13;0.87;;;25.40;99.90;;;;;;4965914;28;20198;-70
2023/01/16 08:55:04;;;;;;;4.27;1.10;;;25.20;99.90;;;;;;4975606;28;20171;-68
2023/01/16 08:57:33;;;;;;;4.40;1.10;;;25.20;99.90;;;;;;4958398;28;20266;-68
2023/01/16 09:00:01;;;;;;;4.73;1.17;;;25.10;99.90;;;;;;4974605;28;20206;-68
2023/01/16 09:02:29;;;;;;;6.83;1.40;;;25.00;99.90;;;;;;4975361;28;20240;-68
2023/01/16 09:04:56;;;;;;;4.80;1.00;;;25.00;99.90;;;;;;4975306;28;20191;-69
2023/01/16 09:07:24;;;;;;;3.33;1.10;;;25.00;99.90;;;;;;4957327;28;20309;-68
2023/01/16 09:09:51;;;;;;;7.13;0.80;;;25.00;99.90;;;;;;4985899;28;20174;-70
2023/01/16 09:15:05;;;;;;;8.03;1.37;;;24.80;99.90;;;;;;4987876;28;20543;-72
2023/01/16 09:17:32;;;;;;;5.73;1.27;;;24.70;99.90;;;;;;4917789;29;20252;-68
2023/01/16 09:20:00;;;;;;;7.90;1.40;;;24.60;99.90;;;;;;4917735;29;20177;-69
2023/01/16 09:22:28;;;;;;;4.90;1.60;;;24.60;99.90;;;;;;4917982;29;20181;-70
2023/01/16 09:24:55;;;;;;;3.67;1.10;;;24.60;99.90;;;;;;4921969;29;20181;-69
2023/01/16 09:27:24;;;;;;;2.43;1.03;;;24.50;99.90;;;;;;4935335;29;20216;-74
2023/01/16 09:29:52;;;;;;;5.03;1.20;;;24.50;99.90;;;;;;4936501;29;20183;-68
2023/01/16 09:32:20;;;;;;;6.40;1.10;;;24.40;99.90;;;;;;4936950;29;20244;-68
2023/01/16 09:34:47;;;;;;;6.87;1.27;;;24.40;99.90;;;;;;4935098;29;20176;-68
2023/01/16 09:37:15;;;;;;;3.87;0.90;;;24.30;99.90;;;;;;4936101;29;20176;-68
2023/01/16 09:39:42;;;;;;;6.03;1.00;;;24.30;99.90;;;;;;4936115;29;20176;-68
2023/01/16 09:45:22;;;;;;;3.07;0.97;;;24.20;99.90;;;;;;4926463;29;20203;-69
2023/01/16 09:47:54;;;;;;;8.60;1.13;;;24.20;99.90;;;;;;4935773;29;20220;-68
2023/01/16 09:50:25;;;;;;;5.87;1.20;;;24.20;99.90;;;;;;4935804;29;20208;-67
2023/01/16 09:58:37;;;;;;;6.37;1.20;;;24.10;99.90;;;;;;4935255;29;20694;-72
2023/01/16 10:01:20;;;;;;;4.97;1.17;;;24.10;99.90;;;;;;4935380;29;20604;-73
2023/01/16 10:03:48;;;;;;;5.73;1.27;;;24.10;99.90;;;;;;4933998;29;20224;-68
2023/01/16 10:06:56;;;;;;;7.57;1.10;;;24.00;99.90;;;;;;4935484;29;20267;-72
2023/01/16 10:09:41;;;;;;;4.73;1.20;;;24.00;99.90;;;;;;4913844;29;20215;-70
2023/01/16 10:12:14;;;;;;;7.67;1.33;;;23.90;99.90;;;;;;4916563;29;20181;-74
2023/01/16 10:14:59;;;;;;;3.60;1.10;;;23.90;99.90;;;;;;4916880;29;20188;-68
2023/01/16 10:17:56;;;;;;;4.30;1.37;;;23.90;99.90;;;;;;4914940;29;20717;-69
2023/01/16 10:20:46;;;;;;;6.23;1.33;;;23.80;99.90;;;;;;4915973;29;20548;-73
2023/01/16 10:23:26;;;;;;;5.27;1.00;;;23.80;99.90;;;;;;4916542;29;20187;-70
2023/01/16 10:26:15;;;;;;;3.23;1.20;;;23.80;99.90;;;;;;4916154;29;20220;-72
2023/01/16 10:29:10;;;;;;;8.87;1.13;;;23.80;99.90;;;;;;4916239;29;20284;-68
2023/01/16 10:32:03;;;;;;;6.03;1.17;;;23.80;99.90;;;;;;4916406;29;20263;-68
2023/01/16 10:34:54;;;;;;;5.17;1.73;;;23.70;99.90;;;;;;4916131;29;20193;-70
2023/01/16 10:37:23;;;;;;;6.33;1.40;;;23.70;99.90;;;;;;4916079;29;20332;-68
2023/01/16 10:39:52;;;;;;;4.17;1.37;;;23.60;99.90;;;;;;4916287;29;20538;-68
2023/01/16 10:51:01;;;;;;;6.47;1.30;;;23.60;99.90;;;;;;4916396;29;20545;-69
2023/01/16 10:53:31;;;;;;;9.20;1.50;;;23.60;99.90;;;;;;4914952;29;20181;-75
2023/01/16 10:55:58;;;;;;;5.37;1.27;;;23.50;99.90;;;;;;4916135;29;20173;-70
2023/01/16 10:58:32;;;;;;;5.33;1.10;;;23.40;99.90;;;;;;4915931;29;20185;-70
2023/01/16 11:01:10;;;;;;;9.17;1.30;;;23.30;99.90;;;;;;4916248;29;20279;-69
2023/01/16 11:03:43;;;;;;;5.57;1.20;;;23.40;99.90;;;;;;4916302;29;20641;-68
2023/01/16 11:06:21;;;;;;;9.37;2.07;;;23.50;99.90;;;;;;4916243;29;20552;-70
2023/01/16 11:08:55;;;;;;;4.27;1.00;;;23.40;99.90;;;;;;4915698;29;20216;-68
2023/01/16 11:20:34;;;;;;;4.63;1.17;;;23.20;99.90;;;;;;4953822;29;20782;-68
2023/01/16 11:23:22;;;;;;;8.67;1.20;;;23.30;99.90;;;;;;4953752;29;20712;-68
2023/01/16 11:25:52;;;;;;;4.53;1.50;;;23.20;99.90;;;;;;4954019;29;20656;-69
2023/01/16 11:28:29;;;;;;;7.37;1.27;;;23.10;99.90;;;;;;4953836;29;20281;-68
2023/01/16 11:31:01;;;;;;;4.30;1.30;;;23.20;99.90;;;;;;4954024;28;20195;-72
2023/01/16 11:33:48;;;;;;;4.13;1.10;;;23.20;99.90;;;;;;4957485;29;20546;-68
2023/01/16 11:36:19;;;;;;;6.60;1.50;;;23.10;99.90;;;;;;4957104;29;20541;-68
2023/01/16 11:38:48;;;;;;;7.30;1.13;;;23.00;99.90;;;;;;4957316;29;20175;-69
2023/01/16 11:41:37;;;;;;;6.03;0.97;;;23.00;99.90;;;;;;4957622;29;20191;-70
2023/01/16 11:47:00;;;;;;;6.60;1.30;;;23.00;99.90;;;;;;4957213;29;20211;-71
2023/01/16 11:49:41;;;;;;;3.80;1.13;;;23.00;99.90;;;;;;4957478;28;20175;-68
2023/01/16 11:52:26;;;;;;;4.63;1.17;;;23.00;99.90;;;;;;4956988;29;20207;-67
2023/01/16 11:55:04;;;;;;;10.40;1.53;;;23.00;99.90;;;;;;4956618;29;20258;-68
2023/01/16 11:58:03;;;;;;;2.90;1.00;;;22.90;99.90;;;;;;4957163;29;20213;-68
2023/01/16 12:01:18;;;;;;;6.20;1.13;;;22.80;99.90;;;;;;4945760;29;20199;-69
2023/01/16 12:03:59;;;;;;;5.33;1.10;;;22.70;99.90;;;;;;4935947;29;20222;-68
2023/01/16 12:07:01;;;;;;;6.73;1.30;;;22.70;99.90;;;;;;4935474;29;20195;-68
2023/01/16 12:09:28;;;;;;;4.10;1.23;;;22.60;99.90;;;;;;4949869;29;20582;-69
2023/01/16 12:15:07;;;;;;;3.30;0.97;;;22.60;99.90;;;;;;4956611;29;20673;-68
2023/01/16 12:17:38;;;;;;;6.43;1.17;;;22.50;99.90;;;;;;4957009;29;20195;-69
2023/01/16 12:20:31;;;;;;;11.13;1.80;;;22.40;99.90;;;;;;4956408;29;20179;-68
2023/01/16 12:23:14;;;;;;;4.73;1.23;;;22.20;99.90;;;;;;4956748;29;20218;-70
2023/01/16 12:26:21;;;;;;;7.17;1.50;;;22.10;99.90;;;;;;4956374;29;20187;-70
2023/01/16 12:29:12;;;;;;;4.50;1.40;;;22.00;99.90;;;;;;4951083;29;20234;-68
2023/01/16 12:31:48;;;;;;;3.90;1.27;;;21.90;99.90;;;;;;4956808;29;20653;-74
2023/01/16 12:34:34;;;;;;;1.87;1.00;;;21.80;99.90;;;;;;4956369;29;20214;-69
2023/01/16 12:37:10;;;;;;;6.13;1.73;;;21.80;99.90;;;;;;4956324;29;20184;-69
2023/01/16 12:40:03;;;;;;;3.30;1.10;;;21.80;99.90;;;;;;4956192;29;20190;-68
2023/01/16 12:45:46;;;;;;;3.27;1.23;;;21.60;99.90;;;;;;4956299;29;20195;-69
2023/01/16 12:48:33;;;;;;;6.33;1.37;;;21.60;99.90;;;;;;4967143;28;20215;-68
2023/01/16 12:51:21;;;;;;;5.10;1.40;;;21.60;99.90;;;;;;4973845;28;20187;-72
2023/01/16 12:54:15;;;;;;;5.30;1.20;;;21.50;99.90;;;;;;4973995;28;20528;-68
2023/01/16 12:56:52;;;;;;;4.93;1.40;;;21.40;99.90;;;;;;4955901;29;20648;-68
2023/01/16 12:59:23;;;;;;;6.13;1.57;;;21.40;99.90;;;;;;4974723;28;20190;-70
2023/01/16 13:01:59;;;;;;;5.63;1.33;;;21.40;99.90;;;;;;4957062;28;20526;-68
2023/01/16 13:04:42;;;;;;;4.83;1.60;;;21.30;99.90;;;;;;4971616;28;20193;-69
2023/01/16 13:07:15;;;;;;;4.33;1.80;;;21.30;99.90;;;;;;4974352;28;20207;-69
2023/01/16 13:09:49;;;;;;;2.07;1.00;;;21.30;99.90;;;;;;4961825;28;20190;-69
2023/01/16 13:15:29;;;;;;;3.80;1.10;;;21.10;99.90;;;;;;4971568;28;20867;-68
2023/01/16 13:18:05;;;;;;;4.80;1.70;;;21.10;99.90;;;;;;4974713;28;20194;-71
2023/01/16 13:20:32;;;;;;;5.57;1.40;;;21.10;99.90;;;;;;4973454;28;20232;-69
2023/01/16 13:23:09;;;;;;;4.27;1.57;;;21.00;99.90;;;;;;4973627;28;20198;-68
2023/01/16 13:25:46;;;;;;;6.80;1.43;;;21.10;99.90;;;;;;4956881;28;20230;-69
2023/01/16 13:28:26;;;;;;;4.97;1.50;;;21.00;99.90;;;;;;4974135;28;20592;-72
2023/01/16 13:30:59;;;;;;;8.67;2.37;;;20.90;99.90;;;;;;4974224;28;20175;-69
2023/01/16 13:33:31;;;;;;;5.57;1.90;;;20.90;99.90;;;;;;4973888;28;20186;-68
2023/01/16 13:36:12;;;;;;;7.13;1.73;;;20.80;99.90;;;;;;4972986;28;20188;-72
2023/01/16 13:39:15;;;;;;;5.13;1.77;;;20.80;99.90;;;;;;4973840;28;20212;-70
2023/01/16 13:41:47;;;;;;;3.23;1.50;;;20.80;99.90;;;;;;4964204;28;20187;-72
2023/01/16 13:47:30;;;;;;;5.80;1.80;;;20.70;99.90;;;;;;4955029;29;20689;-69
2023/01/16 13:50:22;;;;;;;5.13;1.70;;;20.80;99.90;;;;;;4970093;28;20191;-68
2023/01/16 13:52:50;;;;;;;3.40;1.47;;;20.70;99.90;;;;;;4973631;28;20207;-69
2023/01/16 13:55:43;;;;;;;9.43;2.00;;;20.70;99.90;;;;;;4972308;28;20661;-70
2023/01/16 13:58:26;;;;;;;4.23;1.57;;;20.70;99.90;;;;;;4973089;28;20637;-69
2023/01/16 14:01:02;;;;;;;4.20;1.73;;;20.60;99.90;;;;;;4956623;28;20233;-72
2023/01/16 14:03:34;;;;;;;6.13;1.80;;;20.60;99.90;;;;;;4973260;28;20193;-68
2023/01/16 14:06:11;;;;;;;6.70;1.73;;;20.60;99.90;;;;;;4972487;28;20714;-70
2023/01/16 14:09:04;;;;;;;3.43;1.73;;;20.60;99.90;;;;;;4974020;28;20704;-68
2023/01/16 14:11:48;;;;;;;5.67;1.70;;;20.60;99.90;;;;;;4974365;28;20617;-69
2023/01/16 14:17:53;;;;;;;5.50;1.33;;;20.50;99.90;;;;;;4955108;29;20263;-68
2023/01/16 14:20:44;;;;;;;6.97;2.00;;;20.50;99.90;;;;;;4955803;29;20266;-68
2023/01/16 14:26:46;;;;;;;4.77;2.20;;;20.40;99.90;;;;;;4965807;28;20242;-68
2023/01/16 14:29:17;;;;;;;7.00;1.97;;;20.40;99.90;;;;;;4954781;28;20195;-68
2023/01/16 14:31:59;;;;;;;5.77;1.67;;;20.40;99.90;;;;;;4974963;28;20168;-71
2023/01/16 14:34:44;;;;;;;3.13;1.30;;;20.40;99.90;;;;;;4974801;28;20274;-68
2023/01/16 14:37:29;;;;;;;7.13;1.60;;;20.40;99.90;;;;;;4972935;28;20547;-68
2023/01/16 14:40:01;;;;;;;2.97;1.40;;;20.40;99.90;;;;;;4956828;28;20191;-72